NCAR-RAP Real-Time Weather Data

Output produced by METARs form (08 May 2021  01:38 UTC)
found at http://weather.rap.ucar.edu/surface/
 
KDEQ 080053Z AUTO 11003KT 10SM CLR 22/11 A3000 RMK AO2 SLP154 T02220111
KDEQ 072353Z AUTO 15006KT 10SM CLR 24/09 A3001 RMK AO2 SLP160 T02390094 10250 20233 56027
KDEQ 072253Z AUTO 14006KT 10SM CLR 25/11 A3004 RMK AO2 SLP168 T02500106
KDEQ 072153Z AUTO VRB05KT 10SM CLR 25/09 A3006 RMK AO2 SLP176 T02500094
KDEQ 072053Z AUTO 17008KT 10SM CLR 25/11 A3009 RMK AO2 SLP187 T02500111 58021
KDEQ 071954Z AUTO VRB04G14KT 10SM CLR 24/09 A3013 RMK AO2 SLP199 T02440089
KDEQ 071853Z AUTO VRB05KT 10SM CLR 23/09 A3016 RMK AO2 SLP208 T02330094
KDEQ 071753Z AUTO 10008KT 10SM CLR 23/09 A3019 RMK AO2 SLP219 T02280089 10228 20100 58021
KDEQ 071653Z AUTO 10009KT 10SM BKN095 21/08 A3022 RMK AO2 SLP230 T02110078
KDEQ 071553Z AUTO 10007KT 10SM OVC100 19/07 A3023 RMK AO2 SLP233 T01940072
KDEQ 071453Z AUTO 12010KT 10SM CLR 18/07 A3025 RMK AO2 SLP240 T01830072 51015
KDEQ 071353Z AUTO 10004KT 10SM CLR 17/09 A3025 RMK AO2 SLP238 T01720089
KDEQ 071253Z AUTO 00000KT 10SM CLR 13/10 A3024 RMK AO2 SLP236 T01330100
KDEQ 071153Z AUTO 00000KT 10SM CLR 10/09 A3021 RMK AO2 SLP225 T01000089 10144 20094 53011
KDEQ 071053Z AUTO 00000KT 10SM CLR 10/08 A3019 RMK AO2 SLP219 T01000083